createdAt,value
2018-12-15T00:02:50.846Z,98695.52
2018-12-15T00:07:54.857Z,98696.39
2018-12-15T00:12:57.976Z,98699.56
2018-12-15T00:18:01.178Z,98698.11
2018-12-15T00:23:04.508Z,98700.67
2018-12-15T00:28:07.738Z,98703.42
2018-12-15T00:33:10.932Z,98702.14
2018-12-15T00:38:14.147Z,98706.66
2018-12-15T00:43:17.334Z,98712.05
2018-12-15T00:48:20.601Z,98712.10
2018-12-15T00:53:23.750Z,98720.63
2018-12-15T00:58:26.932Z,98722.82
2018-12-15T01:03:30.089Z,98724.19
2018-12-15T01:08:33.320Z,98721.10
2018-12-15T01:13:36.469Z,98720.07
2018-12-15T01:18:39.639Z,98731.02
2018-12-15T01:23:42.753Z,98743.01
2018-12-15T01:28:45.950Z,98747.02
2018-12-15T01:33:49.154Z,98752.42
2018-12-15T01:38:52.352Z,98745.56
2018-12-15T01:43:55.541Z,98759.70
2018-12-15T01:48:58.719Z,98760.67
2018-12-15T01:54:01.987Z,98762.62
2018-12-15T01:59:05.355Z,98755.64
2018-12-15T02:04:08.517Z,98752.09
2018-12-15T02:09:11.674Z,98759.97
2018-12-15T02:14:14.809Z,98755.83
2018-12-15T02:19:17.935Z,98754.80
2018-12-15T02:24:21.094Z,98766.59
2018-12-15T02:29:24.224Z,98768.05
2018-12-15T02:34:27.569Z,98769.86
2018-12-15T02:39:31.313Z,98770.64
2018-12-15T02:44:34.437Z,98770.27
2018-12-15T02:49:37.556Z,98764.68
2018-12-15T02:54:40.693Z,98759.97
2018-12-15T02:59:43.818Z,98764.59
2018-12-15T03:04:47.071Z,98765.14
2018-12-15T03:09:50.228Z,98764.87
2018-12-15T03:14:53.348Z,98768.41
2018-12-15T03:20:01.302Z,98771.58
2018-12-15T03:25:04.847Z,98779.45
2018-12-15T03:30:08.043Z,98781.09
2018-12-15T03:35:11.146Z,98792.63
2018-12-15T03:40:14.304Z,98800.62
2018-12-15T03:45:17.454Z,98794.66
2018-12-15T03:50:20.570Z,98794.55
2018-12-15T03:55:23.704Z,98800.11
2018-12-15T04:00:26.838Z,98800.99
2018-12-15T04:05:30.068Z,98797.18
2018-12-15T04:10:34.708Z,98797.36
2018-12-15T04:15:38.184Z,98806.88
2018-12-15T04:20:41.334Z,98811.39
2018-12-15T04:25:44.442Z,98815.62
2018-12-15T04:30:47.542Z,98808.36
2018-12-15T04:35:50.648Z,98817.53
2018-12-15T04:40:53.898Z,98825.23
2018-12-15T04:45:57.097Z,98830.16
2018-12-15T04:51:00.251Z,98824.53
2018-12-15T04:56:03.412Z,98821.27
2018-12-15T05:01:07.626Z,98818.72
2018-12-15T05:06:10.767Z,98815.95
2018-12-15T05:11:13.909Z,98811.77
2018-12-15T05:16:17.035Z,98813.62
2018-12-15T05:21:20.156Z,98812.31
2018-12-15T05:26:23.309Z,98819.91
2018-12-15T05:31:26.424Z,98816.69
2018-12-15T05:36:29.553Z,98818.83
2018-12-15T05:41:32.689Z,98813.80
2018-12-15T05:46:35.828Z,98802.81
2018-12-15T05:51:38.954Z,98799.92
2018-12-15T05:56:42.151Z,98805.47
2018-12-15T06:01:45.266Z,98800.62
2018-12-15T06:06:48.434Z,98799.17
2018-12-15T06:11:51.686Z,98800.52
2018-12-15T06:16:54.961Z,98805.73
2018-12-15T06:21:58.108Z,98812.54
2018-12-15T06:27:01.254Z,98811.16
2018-12-15T06:32:04.515Z,98814.80
2018-12-15T06:37:07.648Z,98817.58
2018-12-15T06:42:10.746Z,98810.69
2018-12-15T06:47:13.909Z,98819.59
2018-12-15T06:52:17.045Z,98820.98
2018-12-15T06:57:20.302Z,98825.31
2018-12-15T07:02:23.581Z,98823.12
2018-12-15T07:07:26.719Z,98809.28
2018-12-15T07:12:29.863Z,98829.20
2018-12-15T07:17:33.610Z,98823.35
2018-12-15T07:22:36.754Z,98830.90
2018-12-15T07:27:39.944Z,98832.27
2018-12-15T07:32:43.118Z,98836.45
2018-12-15T07:37:46.448Z,98831.40
2018-12-15T07:42:49.772Z,98831.64
2018-12-15T07:47:52.955Z,98836.13
2018-12-15T07:52:56.084Z,98835.27
2018-12-15T07:57:59.292Z,98835.52
2018-12-15T08:03:02.502Z,98835.16
2018-12-15T08:08:05.700Z,98843.04
2018-12-15T08:18:32.022Z,98845.27
2018-12-15T08:23:35.212Z,98852.03
2018-12-15T08:28:38.465Z,98853.25
2018-12-15T08:33:41.638Z,98858.06
2018-12-15T08:38:44.818Z,98859.61
2018-12-15T08:43:48.014Z,98850.95
2018-12-15T08:48:51.197Z,98856.95
2018-12-15T08:53:54.355Z,98847.89
2018-12-15T08:58:57.558Z,98845.38
2018-12-15T09:09:17.192Z,98864.46
2018-12-15T09:14:20.486Z,98863.16
2018-12-15T09:19:23.935Z,98865.02
2018-12-15T09:24:27.214Z,98876.50
2018-12-15T09:29:30.505Z,98862.13
2018-12-15T09:34:33.807Z,98859.53
2018-12-15T09:39:37.122Z,98855.02
2018-12-15T09:44:40.360Z,98848.63
2018-12-15T09:49:43.638Z,98851.09
2018-12-15T09:54:46.904Z,98851.47
2018-12-15T09:59:50.117Z,98844.98
2018-12-15T10:04:53.302Z,98849.50
2018-12-15T10:09:56.559Z,98839.80
2018-12-15T10:14:59.806Z,98837.77
2018-12-15T10:20:03.807Z,98831.08
2018-12-15T10:25:07.172Z,98833.32
2018-12-15T10:30:16.157Z,98829.45
2018-12-15T10:35:19.926Z,98826.75
2018-12-15T10:40:23.275Z,98808.12
2018-12-15T10:45:26.497Z,98799.27
2018-12-15T10:50:29.719Z,98800.34
2018-12-15T10:55:32.972Z,98803.48
2018-12-15T11:00:41.900Z,98814.80
2018-12-15T11:05:45.201Z,98797.73
2018-12-15T11:10:49.120Z,98792.27
2018-12-15T11:15:52.342Z,98793.21
2018-12-15T11:20:55.568Z,98795.80
2018-12-15T11:25:58.753Z,98787.59
2018-12-15T11:31:02.057Z,98786.02
2018-12-15T11:36:05.278Z,98772.09
2018-12-15T11:41:08.571Z,98764.36
2018-12-15T11:46:11.807Z,98769.89
2018-12-15T11:51:15.069Z,98761.09
2018-12-15T11:56:18.501Z,98753.52
2018-12-15T12:01:21.669Z,98745.63
2018-12-15T12:06:24.889Z,98737.84
2018-12-15T12:11:28.141Z,98739.16
2018-12-15T12:16:31.405Z,98739.24
2018-12-15T12:21:34.638Z,98734.86
2018-12-15T12:26:37.863Z,98727.00
2018-12-15T12:31:41.087Z,98730.59
2018-12-15T12:36:44.315Z,98733.85
2018-12-15T12:41:47.667Z,98752.62
2018-12-15T12:46:51.744Z,98740.77
2018-12-15T12:51:55.788Z,98734.73
2018-12-15T12:56:59.066Z,98735.82
2018-12-15T13:02:02.341Z,98730.09
2018-12-15T13:07:05.643Z,98735.52
2018-12-15T13:12:09.125Z,98736.05
2018-12-15T13:17:13.323Z,98728.79
2018-12-15T13:22:16.629Z,98723.89
2018-12-15T13:27:20.507Z,98718.78
2018-12-15T13:32:23.757Z,98719.59
2018-12-15T13:37:27.177Z,98713.87
2018-12-15T13:42:30.417Z,98712.51
2018-12-15T13:47:34.309Z,98718.23
2018-12-15T13:52:37.841Z,98718.73
2018-12-15T13:57:41.213Z,98723.07
2018-12-15T14:02:45.279Z,98731.59
2018-12-15T14:07:48.570Z,98724.78
2018-12-15T14:12:51.793Z,98725.96
2018-12-15T14:17:55.088Z,98728.02
2018-12-15T14:22:58.295Z,98725.28
2018-12-15T14:28:01.517Z,98712.73
2018-12-15T14:33:05.726Z,98703.47
2018-12-15T14:38:09.041Z,98703.74
2018-12-15T14:43:12.431Z,98704.83
2018-12-15T14:48:15.819Z,98707.14
2018-12-15T14:53:19.266Z,98706.97
2018-12-15T14:58:22.507Z,98708.53
2018-12-15T15:03:25.748Z,98705.91
2018-12-15T15:08:28.998Z,98702.09
2018-12-15T15:13:34.650Z,98702.25
2018-12-15T15:18:37.606Z,98701.47
2018-12-15T15:23:40.883Z,98711.64
2018-12-15T15:28:44.170Z,98701.98
2018-12-15T15:33:47.400Z,98700.45
2018-12-15T15:38:50.649Z,98696.06
2018-12-15T15:43:53.929Z,98689.05
2018-12-15T15:48:57.284Z,98677.97
2018-12-15T15:54:00.492Z,98677.73
2018-12-15T15:59:03.877Z,98678.73
2018-12-15T16:04:07.097Z,98673.00
2018-12-15T16:14:26.774Z,98660.46
2018-12-15T16:19:30.034Z,98662.09
2018-12-15T16:24:33.295Z,98654.09
2018-12-15T16:29:36.636Z,98658.03
2018-12-15T16:34:39.816Z,98658.50
2018-12-15T16:39:43.122Z,98672.10
2018-12-15T16:44:46.381Z,98661.22
2018-12-15T16:49:49.754Z,98662.16
2018-12-15T16:54:53.419Z,98646.81
2018-12-15T16:59:56.680Z,98642.17
2018-12-15T17:05:00.008Z,98648.51
2018-12-15T17:10:05.012Z,98646.97
2018-12-15T17:20:25.278Z,98655.68
2018-12-15T17:25:29.292Z,98649.66
2018-12-15T17:32:16.315Z,98641.73
2018-12-15T17:34:48.625Z,98645.93
2018-12-15T17:37:20.958Z,98645.43
2018-12-15T17:39:53.303Z,98638.30
2018-12-15T17:42:25.737Z,98635.91
2018-12-15T17:44:58.777Z,98617.06
2018-12-15T17:47:31.134Z,98617.77
2018-12-15T17:50:03.995Z,98621.81
2018-12-15T17:52:36.379Z,98613.16
2018-12-15T17:55:08.916Z,98617.30
2018-12-15T17:57:41.308Z,98612.03
2018-12-15T18:00:14.048Z,98605.56
2018-12-15T18:02:46.379Z,98605.74
2018-12-15T18:05:18.681Z,98607.91
2018-12-15T18:07:51.074Z,98604.20
2018-12-15T18:10:23.384Z,98605.83
2018-12-15T18:12:55.755Z,98599.61
2018-12-15T18:15:28.065Z,98601.98
2018-12-15T18:18:00.445Z,98594.47
2018-12-15T18:20:32.828Z,98590.42
2018-12-15T18:23:05.230Z,98590.90
2018-12-15T18:25:37.633Z,98581.25
2018-12-15T18:28:09.973Z,98586.66
2018-12-15T18:30:42.305Z,98588.47
2018-12-15T18:33:14.839Z,98585.67
2018-12-15T18:35:47.140Z,98586.97
2018-12-15T18:38:19.422Z,98574.63
2018-12-15T18:40:51.773Z,98575.08
2018-12-15T18:43:24.102Z,98566.80
2018-12-15T18:45:56.398Z,98564.70
2018-12-15T18:48:28.710Z,98558.12
2018-12-15T18:51:01.035Z,98552.80
2018-12-15T18:53:33.351Z,98547.03
2018-12-15T18:56:07.756Z,98540.69
2018-12-15T18:58:40.176Z,98540.54
2018-12-15T19:01:12.482Z,98533.99
2018-12-15T19:03:45.672Z,98513.72
2018-12-15T19:06:18.071Z,98517.49
2018-12-15T19:08:50.397Z,98505.37
2018-12-15T19:11:22.712Z,98508.74
2018-12-15T19:13:55.031Z,98500.14
2018-12-15T19:16:27.383Z,98491.05
2018-12-15T19:18:59.660Z,98491.34
2018-12-15T19:21:31.983Z,98483.56
2018-12-15T19:24:04.836Z,98485.00
2018-12-15T19:26:37.847Z,98478.09
2018-12-15T19:29:11.568Z,98475.72
2018-12-15T19:31:44.489Z,98471.27
2018-12-15T19:34:17.752Z,98467.62
2018-12-15T19:36:50.179Z,98463.63
2018-12-15T19:39:22.513Z,98467.58
2018-12-15T19:41:55.785Z,98469.46
2018-12-15T19:44:28.256Z,98468.39
2018-12-15T19:47:00.593Z,98463.29
2018-12-15T19:49:32.868Z,98455.49
2018-12-15T19:52:06.567Z,98453.73
2018-12-15T19:54:38.925Z,98453.48
2018-12-15T19:57:13.476Z,98448.39
2018-12-15T19:59:45.793Z,98440.20
2018-12-15T20:02:18.209Z,98443.25
2018-12-15T20:04:51.185Z,98441.38
2018-12-15T20:07:23.515Z,98437.38
2018-12-15T20:09:56.451Z,98440.04
2018-12-15T20:12:28.766Z,98430.34
2018-12-15T20:15:01.119Z,98419.01
2018-12-15T20:17:34.594Z,98417.57
2018-12-15T20:20:07.304Z,98409.38
2018-12-15T20:22:39.674Z,98407.94
2018-12-15T20:25:12.667Z,98403.52
2018-12-15T20:27:45.136Z,98397.34
2018-12-15T20:30:17.507Z,98396.53
2018-12-15T20:32:49.939Z,98400.59
2018-12-15T20:35:23.084Z,98398.31
2018-12-15T20:37:55.405Z,98399.38
2018-12-15T20:40:27.806Z,98397.68
2018-12-15T20:43:00.144Z,98390.86
2018-12-15T20:45:32.513Z,98389.27
2018-12-15T20:48:04.861Z,98387.42
2018-12-15T20:50:38.094Z,98377.58
2018-12-15T20:53:10.413Z,98378.50
2018-12-15T20:55:43.291Z,98369.38
2018-12-15T20:58:16.945Z,98376.98
2018-12-15T21:00:49.303Z,98362.12
2018-12-15T21:03:22.212Z,98364.81
2018-12-15T21:05:55.095Z,98364.52
2018-12-15T21:08:27.483Z,98354.33
2018-12-15T21:10:59.839Z,98350.35
2018-12-15T21:13:33.601Z,98356.41
2018-12-15T21:16:06.654Z,98349.28
2018-12-15T21:18:39.058Z,98342.02
2018-12-15T21:21:11.368Z,98338.03
2018-12-15T21:23:44.564Z,98339.28
2018-12-15T21:26:16.966Z,98333.79
2018-12-15T21:28:49.283Z,98338.25
2018-12-15T21:31:22.264Z,98329.33
2018-12-15T21:33:55.541Z,98325.05
2018-12-15T21:36:27.960Z,98326.05
2018-12-15T21:39:00.949Z,98328.59
2018-12-15T21:41:34.195Z,98321.99
2018-12-15T21:44:07.473Z,98321.63
2018-12-15T21:46:39.823Z,98322.77
2018-12-15T21:49:14.289Z,98320.41
2018-12-15T21:51:47.385Z,98309.45
2018-12-15T21:54:19.669Z,98309.48
2018-12-15T21:56:51.965Z,98307.94
2018-12-15T21:59:25.244Z,98299.38
2018-12-15T22:01:57.589Z,98295.59
2018-12-15T22:04:30.094Z,98277.09
2018-12-15T22:07:02.471Z,98276.97
2018-12-15T22:09:34.841Z,98267.23
2018-12-15T22:12:07.712Z,98258.06
2018-12-15T22:14:41.171Z,98251.80
2018-12-15T22:17:14.312Z,98249.14
2018-12-15T22:19:47.256Z,98252.57
2018-12-15T22:22:19.644Z,98240.78
2018-12-15T22:24:52.218Z,98232.67
2018-12-15T22:27:24.536Z,98228.95
2018-12-15T22:29:56.849Z,98226.55
2018-12-15T22:32:29.168Z,98218.30
2018-12-15T22:35:01.471Z,98217.34
2018-12-15T22:37:33.767Z,98214.17
2018-12-15T22:40:06.571Z,98209.30
2018-12-15T22:42:38.863Z,98207.06
2018-12-15T22:45:11.155Z,98203.02
2018-12-15T22:47:43.458Z,98199.33
2018-12-15T22:50:15.807Z,98197.92
2018-12-15T22:52:48.092Z,98182.16
2018-12-15T22:55:20.409Z,98188.05
2018-12-15T22:57:52.679Z,98187.53
2018-12-15T23:00:25.151Z,98168.93
2018-12-15T23:02:57.476Z,98175.02
2018-12-15T23:05:29.808Z,98174.79
2018-12-15T23:08:02.142Z,98173.06
2018-12-15T23:10:34.481Z,98171.44
2018-12-15T23:13:07.345Z,98154.23
2018-12-15T23:15:39.848Z,98130.76
2018-12-15T23:18:12.161Z,98131.19
2018-12-15T23:20:44.541Z,98135.58
2018-12-15T23:23:16.808Z,98133.77
2018-12-15T23:25:49.263Z,98126.55
2018-12-15T23:28:21.545Z,98111.51
2018-12-15T23:30:53.865Z,98100.00
2018-12-15T23:33:26.186Z,98101.40
2018-12-15T23:35:58.495Z,98105.53
2018-12-15T23:38:30.783Z,98098.33
2018-12-15T23:41:03.069Z,98093.50
2018-12-15T23:43:35.366Z,98093.45
2018-12-15T23:46:07.693Z,98092.70
2018-12-15T23:48:39.988Z,98094.41
2018-12-15T23:51:12.353Z,98084.16
2018-12-15T23:53:44.673Z,98086.02
2018-12-15T23:56:17.029Z,98082.67
2018-12-15T23:58:49.359Z,98081.20
